createdAt,value
2022-12-03T00:02:24.804Z,101117.64
2022-12-03T00:10:47.858Z,101115.38
2022-12-03T00:19:10.774Z,101115.20
2022-12-03T00:27:33.714Z,101113.73
2022-12-03T00:35:56.678Z,101111.67
2022-12-03T00:44:19.715Z,101108.95
2022-12-03T00:52:42.681Z,101100.52
2022-12-03T01:01:05.810Z,101100.27
2022-12-03T01:09:28.853Z,101099.71
2022-12-03T01:17:54.443Z,101094.59
2022-12-03T01:26:17.532Z,101090.59
2022-12-03T01:34:40.467Z,101085.31
2022-12-03T01:43:03.569Z,101085.70
2022-12-03T01:51:26.755Z,101083.89
2022-12-03T01:59:50.524Z,101088.05
2022-12-03T02:08:34.749Z,101090.71
2022-12-03T02:16:57.677Z,101095.59
2022-12-03T02:25:27.463Z,101096.42
2022-12-03T02:33:50.737Z,101091.34
2022-12-03T02:42:32.657Z,101091.68
2022-12-03T02:50:59.379Z,101093.89
2022-12-03T02:59:22.668Z,101091.77
2022-12-03T03:07:46.637Z,101088.64
2022-12-03T03:16:10.437Z,101091.72
2022-12-03T03:24:33.600Z,101089.29
2022-12-03T03:32:56.755Z,101088.41
2022-12-03T03:41:21.582Z,101083.32
2022-12-03T03:49:44.830Z,101075.52
2022-12-03T03:58:08.012Z,101068.39
2022-12-03T04:06:31.028Z,101064.54
2022-12-03T04:14:54.145Z,101068.48
2022-12-03T04:23:17.343Z,101069.89
2022-12-03T04:31:58.939Z,101058.52
2022-12-03T04:40:40.644Z,101061.91
2022-12-03T04:49:03.677Z,101061.80
2022-12-03T04:57:26.539Z,101057.02
2022-12-03T05:05:49.493Z,101059.37
2022-12-03T05:14:13.079Z,101062.49
2022-12-03T05:22:36.130Z,101059.42
2022-12-03T05:30:59.161Z,101056.10
2022-12-03T05:39:22.227Z,101059.67
2022-12-03T05:47:45.169Z,101041.70
2022-12-03T05:56:08.166Z,101033.06
2022-12-03T06:04:31.136Z,101032.30
2022-12-03T06:12:54.195Z,101034.60
2022-12-03T06:21:17.108Z,101038.59
2022-12-03T06:29:40.028Z,101043.11
2022-12-03T06:38:03.173Z,101043.90
2022-12-03T06:46:26.193Z,101051.66
2022-12-03T06:54:49.689Z,101060.54
2022-12-03T07:03:12.677Z,101059.36
2022-12-03T07:11:40.611Z,101068.88
2022-12-03T07:20:04.997Z,101069.08
2022-12-03T07:28:28.455Z,101066.48
2022-12-03T07:36:51.407Z,101069.77
2022-12-03T07:45:14.400Z,101059.63
2022-12-03T07:53:37.484Z,101051.02
2022-12-03T08:02:00.425Z,101043.39
2022-12-03T08:10:25.752Z,101040.13
2022-12-03T08:18:50.389Z,101042.10
2022-12-03T08:27:19.579Z,101044.50
2022-12-03T08:35:50.125Z,101048.09
2022-12-03T08:44:29.650Z,101043.64
2022-12-03T08:52:53.172Z,101041.11
2022-12-03T09:01:29.235Z,101039.25
2022-12-03T09:09:52.840Z,101033.65
2022-12-03T09:18:15.962Z,101032.97
2022-12-03T09:26:39.029Z,101044.48
2022-12-03T09:35:02.253Z,101031.23
2022-12-03T09:43:49.465Z,101027.61
2022-12-03T09:52:22.581Z,101027.38
2022-12-03T10:00:52.322Z,101019.36
2022-12-03T10:09:17.555Z,101017.13
2022-12-03T10:17:41.130Z,101015.89
2022-12-03T10:26:04.109Z,101002.13
2022-12-03T10:34:39.038Z,101007.70
2022-12-03T10:43:28.888Z,101012.98
2022-12-03T10:51:55.591Z,101010.82
2022-12-03T11:00:20.025Z,101001.79
2022-12-03T11:08:54.764Z,101001.05
2022-12-03T11:17:42.384Z,100997.38
2022-12-03T11:26:05.515Z,100989.69
2022-12-03T11:34:34.331Z,100989.45
2022-12-03T11:42:58.813Z,100988.35
2022-12-03T11:51:24.898Z,100992.53
2022-12-03T12:00:05.629Z,100991.17
2022-12-03T12:08:37.193Z,100996.34
2022-12-03T12:17:03.508Z,100987.45
2022-12-03T12:25:30.842Z,100977.38
2022-12-03T12:33:53.695Z,100968.88
2022-12-03T12:42:29.421Z,100959.08
2022-12-03T12:50:59.595Z,100954.52
2022-12-03T12:59:24.485Z,100948.44
2022-12-03T13:07:48.088Z,100951.84
2022-12-03T13:16:31.556Z,100956.40
2022-12-03T13:24:58.781Z,100956.66
2022-12-03T13:33:26.610Z,100964.80
2022-12-03T13:42:08.299Z,100970.15
2022-12-03T13:50:44.872Z,100979.11
2022-12-03T13:59:09.048Z,100975.14
2022-12-03T14:07:31.918Z,100973.00
2022-12-03T14:15:55.388Z,100969.55
2022-12-03T14:24:18.362Z,100985.77
2022-12-03T14:32:41.340Z,100978.73
2022-12-03T14:41:04.379Z,100978.80
2022-12-03T14:49:28.653Z,100982.10
2022-12-03T14:57:51.686Z,100983.75
2022-12-03T15:06:14.663Z,100978.45
2022-12-03T15:14:37.529Z,100983.86
2022-12-03T15:23:00.489Z,100992.09
2022-12-03T15:31:23.646Z,100990.63
2022-12-03T15:39:48.672Z,101001.02
2022-12-03T15:48:13.680Z,101010.73
2022-12-03T15:56:37.745Z,101009.83
2022-12-03T16:05:02.909Z,101009.31
2022-12-03T16:13:25.752Z,101022.59
2022-12-03T16:21:48.718Z,101020.95
2022-12-03T16:30:12.422Z,101028.50
2022-12-03T16:38:35.475Z,101029.70
2022-12-03T16:47:00.578Z,101035.55
2022-12-03T16:55:23.741Z,101041.45
2022-12-03T17:03:46.822Z,101047.48
2022-12-03T17:12:09.706Z,101036.60
2022-12-03T17:20:34.436Z,101035.14
2022-12-03T17:28:57.802Z,101040.67
2022-12-03T17:37:20.752Z,101043.42
2022-12-03T17:45:44.436Z,101050.16
2022-12-03T17:54:07.302Z,101050.43
2022-12-03T18:02:30.324Z,101055.81
2022-12-03T18:10:53.329Z,101051.94
2022-12-03T18:19:16.385Z,101049.63
2022-12-03T18:27:39.548Z,101042.34
2022-12-03T18:36:02.728Z,101044.13
2022-12-03T18:44:26.095Z,101061.10
2022-12-03T18:52:48.946Z,101055.48
2022-12-03T19:01:16.284Z,101062.83
2022-12-03T19:09:40.397Z,101064.46
2022-12-03T19:18:03.959Z,101068.84
2022-12-03T19:26:26.855Z,101067.59
2022-12-03T19:34:50.055Z,101069.95
2022-12-03T19:43:12.995Z,101073.02
2022-12-03T19:51:36.409Z,101080.25
2022-12-03T19:59:59.350Z,101079.83
2022-12-03T20:08:22.297Z,101078.42
2022-12-03T20:16:46.171Z,101075.96
2022-12-03T20:25:10.668Z,101071.41
2022-12-03T20:33:33.568Z,101071.00
2022-12-03T20:41:56.532Z,101062.34
2022-12-03T20:50:19.406Z,101057.04
2022-12-03T20:58:42.350Z,101059.05
2022-12-03T21:07:05.234Z,101057.04
2022-12-03T21:15:28.407Z,101065.31
2022-12-03T21:23:51.510Z,101069.08
2022-12-03T21:32:14.462Z,101067.72
2022-12-03T21:40:37.519Z,101070.14
2022-12-03T21:49:01.498Z,101062.08
2022-12-03T21:57:24.436Z,101079.20
2022-12-03T22:05:47.454Z,101082.25
2022-12-03T22:14:10.587Z,101083.10
2022-12-03T22:22:33.591Z,101073.60
2022-12-03T22:30:56.947Z,101066.67
2022-12-03T22:39:19.858Z,101062.21
2022-12-03T22:47:43.594Z,101055.48
2022-12-03T22:56:06.776Z,101059.77
2022-12-03T23:04:29.699Z,101068.62
2022-12-03T23:12:52.573Z,101060.50
2022-12-03T23:21:17.818Z,101044.42
2022-12-03T23:29:40.642Z,101038.58
2022-12-03T23:38:03.556Z,101041.73
2022-12-03T23:46:27.639Z,101041.07
2022-12-03T23:54:50.652Z,101049.95
